sensor_id;sensor_type;location;lat;lon;timestamp;P1;durP1;ratioP1;P2;durP2;ratioP2
61978;SDS011;47938;48.176;16.414;2022-10-26T00:00:25;17.27;;;6.70;;
61978;SDS011;47938;48.176;16.414;2022-10-26T00:02:53;11.88;;;6.15;;
61978;SDS011;47938;48.176;16.414;2022-10-26T00:05:19;10.30;;;5.68;;
61978;SDS011;47938;48.176;16.414;2022-10-26T00:07:45;12.80;;;5.30;;
61978;SDS011;47938;48.176;16.414;2022-10-26T00:10:11;14.48;;;6.28;;
61978;SDS011;47938;48.176;16.414;2022-10-26T00:12:37;11.68;;;5.63;;
61978;SDS011;47938;48.176;16.414;2022-10-26T00:15:02;9.50;;;5.07;;
61978;SDS011;47938;48.176;16.414;2022-10-26T00:17:28;11.70;;;5.43;;
61978;SDS011;47938;48.176;16.414;2022-10-26T00:19:54;21.75;;;5.90;;
61978;SDS011;47938;48.176;16.414;2022-10-26T00:22:19;18.27;;;5.35;;
61978;SDS011;47938;48.176;16.414;2022-10-26T00:24:45;15.65;;;6.88;;
61978;SDS011;47938;48.176;16.414;2022-10-26T00:27:11;14.68;;;6.72;;
61978;SDS011;47938;48.176;16.414;2022-10-26T00:29:36;12.07;;;5.78;;
61978;SDS011;47938;48.176;16.414;2022-10-26T00:32:02;17.25;;;5.47;;
61978;SDS011;47938;48.176;16.414;2022-10-26T00:34:27;9.75;;;5.00;;
61978;SDS011;47938;48.176;16.414;2022-10-26T00:36:53;13.95;;;5.40;;
61978;SDS011;47938;48.176;16.414;2022-10-26T00:39:18;11.13;;;5.32;;
61978;SDS011;47938;48.176;16.414;2022-10-26T00:41:44;7.82;;;5.03;;
61978;SDS011;47938;48.176;16.414;2022-10-26T00:49:40;11.30;;;4.93;;
61978;SDS011;47938;48.176;16.414;2022-10-26T00:52:06;10.27;;;5.03;;
61978;SDS011;47938;48.176;16.414;2022-10-26T00:54:33;11.57;;;4.97;;
61978;SDS011;47938;48.176;16.414;2022-10-26T00:56:59;8.25;;;4.85;;
61978;SDS011;47938;48.176;16.414;2022-10-26T00:59:25;8.68;;;5.25;;
61978;SDS011;47938;48.176;16.414;2022-10-26T01:01:50;10.88;;;4.35;;
61978;SDS011;47938;48.176;16.414;2022-10-26T01:04:17;9.52;;;4.93;;
61978;SDS011;47938;48.176;16.414;2022-10-26T01:06:43;12.73;;;6.70;;
61978;SDS011;47938;48.176;16.414;2022-10-26T01:09:10;13.15;;;6.75;;
61978;SDS011;47938;48.176;16.414;2022-10-26T01:11:37;12.25;;;6.00;;
61978;SDS011;47938;48.176;16.414;2022-10-26T01:14:03;11.68;;;5.00;;
61978;SDS011;47938;48.176;16.414;2022-10-26T01:24:51;11.13;;;5.70;;
61978;SDS011;47938;48.176;16.414;2022-10-26T01:27:33;10.23;;;5.65;;
61978;SDS011;47938;48.176;16.414;2022-10-26T01:30:19;15.10;;;6.05;;
61978;SDS011;47938;48.176;16.414;2022-10-26T01:44:01;16.70;;;5.95;;
61978;SDS011;47938;48.176;16.414;2022-10-26T01:46:29;19.08;;;6.25;;
61978;SDS011;47938;48.176;16.414;2022-10-26T01:49:00;15.90;;;6.05;;
61978;SDS011;47938;48.176;16.414;2022-10-26T01:51:29;10.05;;;5.18;;
61978;SDS011;47938;48.176;16.414;2022-10-26T01:53:56;11.57;;;5.55;;
61978;SDS011;47938;48.176;16.414;2022-10-26T01:56:24;12.30;;;5.32;;
61978;SDS011;47938;48.176;16.414;2022-10-26T02:10:24;8.95;;;4.90;;
61978;SDS011;47938;48.176;16.414;2022-10-26T02:12:57;9.35;;;4.78;;
61978;SDS011;47938;48.176;16.414;2022-10-26T02:20:46;12.82;;;4.93;;
61978;SDS011;47938;48.176;16.414;2022-10-26T02:23:17;14.07;;;5.63;;
61978;SDS011;47938;48.176;16.414;2022-10-26T02:25:48;10.10;;;4.88;;
61978;SDS011;47938;48.176;16.414;2022-10-26T02:28:21;13.00;;;5.47;;
61978;SDS011;47938;48.176;16.414;2022-10-26T02:30:51;10.18;;;4.80;;
61978;SDS011;47938;48.176;16.414;2022-10-26T02:33:19;12.85;;;5.20;;
61978;SDS011;47938;48.176;16.414;2022-10-26T02:35:47;11.23;;;5.68;;
61978;SDS011;47938;48.176;16.414;2022-10-26T02:38:15;16.02;;;4.82;;
61978;SDS011;47938;48.176;16.414;2022-10-26T02:40:44;11.00;;;4.95;;
61978;SDS011;47938;48.176;16.414;2022-10-26T02:43:14;12.43;;;5.28;;
61978;SDS011;47938;48.176;16.414;2022-10-26T02:45:43;11.13;;;5.05;;
61978;SDS011;47938;48.176;16.414;2022-10-26T02:48:13;14.93;;;5.63;;
61978;SDS011;47938;48.176;16.414;2022-10-26T02:50:44;10.43;;;5.15;;
61978;SDS011;47938;48.176;16.414;2022-10-26T02:53:25;11.18;;;5.18;;
61978;SDS011;47938;48.176;16.414;2022-10-26T02:55:52;13.05;;;5.20;;
61978;SDS011;47938;48.176;16.414;2022-10-26T02:58:38;10.57;;;5.57;;
61978;SDS011;47938;48.176;16.414;2022-10-26T03:01:07;9.52;;;4.82;;
61978;SDS011;47938;48.176;16.414;2022-10-26T03:03:33;9.65;;;4.65;;
61978;SDS011;47938;48.176;16.414;2022-10-26T03:05:59;17.00;;;6.00;;
61978;SDS011;47938;48.176;16.414;2022-10-26T03:08:24;6.60;;;4.70;;
61978;SDS011;47938;48.176;16.414;2022-10-26T03:10:50;7.13;;;4.45;;
61978;SDS011;47938;48.176;16.414;2022-10-26T03:13:16;10.10;;;5.45;;
61978;SDS011;47938;48.176;16.414;2022-10-26T03:15:41;9.27;;;5.20;;
61978;SDS011;47938;48.176;16.414;2022-10-26T03:18:07;15.10;;;5.10;;
61978;SDS011;47938;48.176;16.414;2022-10-26T03:20:33;7.95;;;5.43;;
61978;SDS011;47938;48.176;16.414;2022-10-26T03:22:58;17.35;;;5.90;;
61978;SDS011;47938;48.176;16.414;2022-10-26T03:25:24;10.05;;;4.97;;
61978;SDS011;47938;48.176;16.414;2022-10-26T03:28:00;10.57;;;5.10;;
61978;SDS011;47938;48.176;16.414;2022-10-26T03:30:28;10.73;;;4.50;;
61978;SDS011;47938;48.176;16.414;2022-10-26T03:32:54;16.75;;;5.00;;
61978;SDS011;47938;48.176;16.414;2022-10-26T03:35:20;14.43;;;5.47;;
61978;SDS011;47938;48.176;16.414;2022-10-26T03:37:46;14.05;;;5.30;;
61978;SDS011;47938;48.176;16.414;2022-10-26T03:40:11;13.75;;;4.97;;
61978;SDS011;47938;48.176;16.414;2022-10-26T03:42:37;9.05;;;5.35;;
61978;SDS011;47938;48.176;16.414;2022-10-26T03:45:04;8.68;;;5.45;;
61978;SDS011;47938;48.176;16.414;2022-10-26T03:47:30;12.65;;;4.63;;
61978;SDS011;47938;48.176;16.414;2022-10-26T03:49:56;17.55;;;5.93;;
61978;SDS011;47938;48.176;16.414;2022-10-26T03:52:21;11.05;;;5.15;;
61978;SDS011;47938;48.176;16.414;2022-10-26T03:54:47;10.85;;;4.18;;
61978;SDS011;47938;48.176;16.414;2022-10-26T03:57:12;9.00;;;4.60;;
61978;SDS011;47938;48.176;16.414;2022-10-26T03:59:38;8.73;;;5.18;;
61978;SDS011;47938;48.176;16.414;2022-10-26T04:02:03;9.25;;;4.20;;
61978;SDS011;47938;48.176;16.414;2022-10-26T04:04:29;8.73;;;4.95;;
61978;SDS011;47938;48.176;16.414;2022-10-26T04:06:55;23.33;;;6.32;;
61978;SDS011;47938;48.176;16.414;2022-10-26T04:09:20;9.77;;;5.05;;
61978;SDS011;47938;48.176;16.414;2022-10-26T04:11:46;8.05;;;5.28;;
61978;SDS011;47938;48.176;16.414;2022-10-26T04:14:11;10.57;;;5.20;;
61978;SDS011;47938;48.176;16.414;2022-10-26T04:16:37;8.32;;;4.15;;
61978;SDS011;47938;48.176;16.414;2022-10-26T04:19:02;9.43;;;4.95;;
61978;SDS011;47938;48.176;16.414;2022-10-26T04:21:28;8.48;;;5.03;;
61978;SDS011;47938;48.176;16.414;2022-10-26T04:23:54;8.40;;;4.72;;
61978;SDS011;47938;48.176;16.414;2022-10-26T04:26:19;11.05;;;5.63;;
61978;SDS011;47938;48.176;16.414;2022-10-26T04:28:45;11.15;;;5.78;;
61978;SDS011;47938;48.176;16.414;2022-10-26T04:31:10;9.35;;;4.93;;
61978;SDS011;47938;48.176;16.414;2022-10-26T04:33:36;9.00;;;5.00;;
61978;SDS011;47938;48.176;16.414;2022-10-26T04:36:02;19.58;;;8.20;;
61978;SDS011;47938;48.176;16.414;2022-10-26T04:38:28;11.73;;;6.55;;
61978;SDS011;47938;48.176;16.414;2022-10-26T04:40:53;11.40;;;6.15;;
61978;SDS011;47938;48.176;16.414;2022-10-26T04:43:19;10.13;;;6.10;;
61978;SDS011;47938;48.176;16.414;2022-10-26T04:45:44;16.63;;;5.88;;
61978;SDS011;47938;48.176;16.414;2022-10-26T04:48:11;17.52;;;5.90;;
61978;SDS011;47938;48.176;16.414;2022-10-26T04:50:37;11.63;;;6.38;;
61978;SDS011;47938;48.176;16.414;2022-10-26T04:53:04;12.80;;;6.50;;
61978;SDS011;47938;48.176;16.414;2022-10-26T04:55:30;11.38;;;6.57;;
61978;SDS011;47938;48.176;16.414;2022-10-26T04:57:55;11.88;;;6.90;;
61978;SDS011;47938;48.176;16.414;2022-10-26T05:00:21;10.80;;;6.88;;
61978;SDS011;47938;48.176;16.414;2022-10-26T05:02:47;9.77;;;6.85;;
61978;SDS011;47938;48.176;16.414;2022-10-26T05:05:12;11.10;;;7.05;;
61978;SDS011;47938;48.176;16.414;2022-10-26T05:07:38;13.18;;;7.63;;
61978;SDS011;47938;48.176;16.414;2022-10-26T05:10:04;11.52;;;7.32;;
61978;SDS011;47938;48.176;16.414;2022-10-26T05:12:30;11.32;;;7.00;;
61978;SDS011;47938;48.176;16.414;2022-10-26T05:14:56;10.15;;;7.38;;
61978;SDS011;47938;48.176;16.414;2022-10-26T05:17:21;9.48;;;6.82;;
61978;SDS011;47938;48.176;16.414;2022-10-26T05:19:47;11.45;;;7.60;;
61978;SDS011;47938;48.176;16.414;2022-10-26T05:22:12;11.75;;;8.18;;
61978;SDS011;47938;48.176;16.414;2022-10-26T05:24:38;12.25;;;7.50;;
61978;SDS011;47938;48.176;16.414;2022-10-26T05:27:04;13.65;;;8.25;;
61978;SDS011;47938;48.176;16.414;2022-10-26T05:29:29;15.02;;;8.07;;
61978;SDS011;47938;48.176;16.414;2022-10-26T05:31:55;15.20;;;9.52;;
61978;SDS011;47938;48.176;16.414;2022-10-26T05:34:20;14.88;;;9.98;;
61978;SDS011;47938;48.176;16.414;2022-10-26T05:36:46;11.70;;;9.30;;
61978;SDS011;47938;48.176;16.414;2022-10-26T05:39:11;14.60;;;9.63;;
61978;SDS011;47938;48.176;16.414;2022-10-26T05:41:37;15.02;;;9.75;;
61978;SDS011;47938;48.176;16.414;2022-10-26T05:44:03;19.20;;;10.48;;
61978;SDS011;47938;48.176;16.414;2022-10-26T05:46:28;13.32;;;10.15;;
61978;SDS011;47938;48.176;16.414;2022-10-26T05:48:54;13.55;;;11.05;;
61978;SDS011;47938;48.176;16.414;2022-10-26T05:51:19;21.50;;;11.68;;
61978;SDS011;47938;48.176;16.414;2022-10-26T05:53:45;15.18;;;11.38;;
61978;SDS011;47938;48.176;16.414;2022-10-26T05:56:16;14.90;;;11.50;;
61978;SDS011;47938;48.176;16.414;2022-10-26T05:58:44;14.48;;;10.90;;
61978;SDS011;47938;48.176;16.414;2022-10-26T06:01:14;15.98;;;10.75;;
61978;SDS011;47938;48.176;16.414;2022-10-26T06:06:23;15.63;;;12.05;;
61978;SDS011;47938;48.176;16.414;2022-10-26T06:08:50;17.30;;;12.55;;
61978;SDS011;47938;48.176;16.414;2022-10-26T06:11:16;17.30;;;13.20;;
61978;SDS011;47938;48.176;16.414;2022-10-26T06:13:42;20.33;;;12.45;;
61978;SDS011;47938;48.176;16.414;2022-10-26T06:16:13;21.73;;;14.90;;
61978;SDS011;47938;48.176;16.414;2022-10-26T06:19:18;20.95;;;14.02;;
61978;SDS011;47938;48.176;16.414;2022-10-26T06:21:48;22.95;;;14.82;;
61978;SDS011;47938;48.176;16.414;2022-10-26T06:24:42;21.77;;;15.63;;
61978;SDS011;47938;48.176;16.414;2022-10-26T06:28:04;21.27;;;14.40;;
61978;SDS011;47938;48.176;16.414;2022-10-26T06:30:20;22.27;;;14.18;;
61978;SDS011;47938;48.176;16.414;2022-10-26T06:32:46;18.88;;;13.60;;
61978;SDS011;47938;48.176;16.414;2022-10-26T06:37:43;17.70;;;12.73;;
61978;SDS011;47938;48.176;16.414;2022-10-26T06:40:09;19.05;;;13.70;;
61978;SDS011;47938;48.176;16.414;2022-10-26T06:42:38;19.05;;;12.45;;
61978;SDS011;47938;48.176;16.414;2022-10-26T06:45:04;19.15;;;13.68;;
61978;SDS011;47938;48.176;16.414;2022-10-26T06:52:56;20.48;;;13.20;;
61978;SDS011;47938;48.176;16.414;2022-10-26T06:55:45;17.48;;;12.35;;
61978;SDS011;47938;48.176;16.414;2022-10-26T06:58:15;18.95;;;12.65;;
61978;SDS011;47938;48.176;16.414;2022-10-26T07:00:43;24.98;;;13.63;;
61978;SDS011;47938;48.176;16.414;2022-10-26T07:03:10;19.83;;;13.48;;
61978;SDS011;47938;48.176;16.414;2022-10-26T07:05:36;25.38;;;13.20;;
61978;SDS011;47938;48.176;16.414;2022-10-26T07:08:02;23.73;;;13.75;;
61978;SDS011;47938;48.176;16.414;2022-10-26T07:10:28;26.75;;;14.00;;
61978;SDS011;47938;48.176;16.414;2022-10-26T07:12:54;28.17;;;14.77;;
61978;SDS011;47938;48.176;16.414;2022-10-26T07:15:20;26.50;;;15.13;;
61978;SDS011;47938;48.176;16.414;2022-10-26T07:17:46;27.50;;;14.30;;
61978;SDS011;47938;48.176;16.414;2022-10-26T07:20:13;27.73;;;15.20;;
61978;SDS011;47938;48.176;16.414;2022-10-26T07:22:42;29.23;;;14.32;;
61978;SDS011;47938;48.176;16.414;2022-10-26T07:25:08;30.83;;;14.35;;
61978;SDS011;47938;48.176;16.414;2022-10-26T07:27:34;28.38;;;13.27;;
61978;SDS011;47938;48.176;16.414;2022-10-26T07:30:00;32.17;;;15.77;;
61978;SDS011;47938;48.176;16.414;2022-10-26T07:32:26;27.15;;;14.00;;
61978;SDS011;47938;48.176;16.414;2022-10-26T07:34:52;25.92;;;14.48;;
61978;SDS011;47938;48.176;16.414;2022-10-26T07:37:17;36.42;;;15.55;;
61978;SDS011;47938;48.176;16.414;2022-10-26T07:39:43;27.45;;;13.40;;
61978;SDS011;47938;48.176;16.414;2022-10-26T07:42:08;28.58;;;14.45;;
61978;SDS011;47938;48.176;16.414;2022-10-26T07:44:34;32.80;;;14.52;;
61978;SDS011;47938;48.176;16.414;2022-10-26T07:47:00;33.28;;;14.52;;
61978;SDS011;47938;48.176;16.414;2022-10-26T07:49:25;30.65;;;14.77;;
61978;SDS011;47938;48.176;16.414;2022-10-26T07:51:51;34.95;;;15.18;;
61978;SDS011;47938;48.176;16.414;2022-10-26T07:54:17;43.65;;;15.27;;
61978;SDS011;47938;48.176;16.414;2022-10-26T07:56:42;31.55;;;15.05;;
61978;SDS011;47938;48.176;16.414;2022-10-26T07:59:10;36.10;;;15.88;;
61978;SDS011;47938;48.176;16.414;2022-10-26T08:01:36;43.13;;;17.35;;
61978;SDS011;47938;48.176;16.414;2022-10-26T08:04:01;44.00;;;17.27;;
61978;SDS011;47938;48.176;16.414;2022-10-26T08:06:27;44.20;;;16.17;;
61978;SDS011;47938;48.176;16.414;2022-10-26T08:08:52;39.97;;;16.60;;
61978;SDS011;47938;48.176;16.414;2022-10-26T08:11:18;48.63;;;17.58;;
61978;SDS011;47938;48.176;16.414;2022-10-26T08:13:44;49.33;;;17.95;;
61978;SDS011;47938;48.176;16.414;2022-10-26T08:16:09;43.50;;;18.60;;
61978;SDS011;47938;48.176;16.414;2022-10-26T08:18:35;44.00;;;18.67;;
61978;SDS011;47938;48.176;16.414;2022-10-26T08:21:02;43.13;;;19.27;;
61978;SDS011;47938;48.176;16.414;2022-10-26T08:23:30;51.50;;;20.15;;
61978;SDS011;47938;48.176;16.414;2022-10-26T08:25:57;56.95;;;21.10;;
61978;SDS011;47938;48.176;16.414;2022-10-26T08:28:26;54.63;;;20.75;;
61978;SDS011;47938;48.176;16.414;2022-10-26T08:30:53;51.88;;;20.48;;
61978;SDS011;47938;48.176;16.414;2022-10-26T08:33:20;47.42;;;20.58;;
61978;SDS011;47938;48.176;16.414;2022-10-26T08:35:46;47.88;;;20.80;;
61978;SDS011;47938;48.176;16.414;2022-10-26T08:38:12;50.10;;;19.90;;
61978;SDS011;47938;48.176;16.414;2022-10-26T08:40:39;52.08;;;19.65;;
61978;SDS011;47938;48.176;16.414;2022-10-26T08:43:12;44.38;;;19.52;;
61978;SDS011;47938;48.176;16.414;2022-10-26T08:48:53;44.97;;;20.52;;
61978;SDS011;47938;48.176;16.414;2022-10-26T08:51:27;39.20;;;18.88;;
61978;SDS011;47938;48.176;16.414;2022-10-26T08:53:57;46.20;;;19.48;;
61978;SDS011;47938;48.176;16.414;2022-10-26T08:56:28;51.00;;;18.73;;
61978;SDS011;47938;48.176;16.414;2022-10-26T08:59:15;46.30;;;19.33;;
61978;SDS011;47938;48.176;16.414;2022-10-26T09:01:48;44.58;;;17.92;;
61978;SDS011;47938;48.176;16.414;2022-10-26T09:04:14;40.65;;;17.45;;
61978;SDS011;47938;48.176;16.414;2022-10-26T09:09:20;25.15;;;13.60;;
61978;SDS011;47938;48.176;16.414;2022-10-26T09:20:03;32.60;;;14.48;;
61978;SDS011;47938;48.176;16.414;2022-10-26T09:25:17;19.67;;;11.98;;
61978;SDS011;47938;48.176;16.414;2022-10-26T09:27:46;28.65;;;12.95;;
61978;SDS011;47938;48.176;16.414;2022-10-26T09:30:16;25.40;;;12.60;;
61978;SDS011;47938;48.176;16.414;2022-10-26T09:32:45;23.67;;;13.27;;
61978;SDS011;47938;48.176;16.414;2022-10-26T09:35:22;22.95;;;12.07;;
61978;SDS011;47938;48.176;16.414;2022-10-26T09:37:55;23.88;;;13.07;;
61978;SDS011;47938;48.176;16.414;2022-10-26T09:40:41;27.88;;;13.00;;
61978;SDS011;47938;48.176;16.414;2022-10-26T09:43:17;26.40;;;13.70;;
61978;SDS011;47938;48.176;16.414;2022-10-26T09:45:50;22.10;;;14.18;;
61978;SDS011;47938;48.176;16.414;2022-10-26T09:48:28;21.15;;;13.52;;
61978;SDS011;47938;48.176;16.414;2022-10-26T09:51:15;25.52;;;14.63;;
61978;SDS011;47938;48.176;16.414;2022-10-26T09:53:42;27.95;;;15.93;;
61978;SDS011;47938;48.176;16.414;2022-10-26T09:56:09;25.60;;;16.08;;
61978;SDS011;47938;48.176;16.414;2022-10-26T09:58:39;27.80;;;15.00;;
61978;SDS011;47938;48.176;16.414;2022-10-26T10:01:30;30.70;;;16.08;;
61978;SDS011;47938;48.176;16.414;2022-10-26T10:06:47;25.52;;;16.00;;
61978;SDS011;47938;48.176;16.414;2022-10-26T10:11:44;28.10;;;16.80;;
61978;SDS011;47938;48.176;16.414;2022-10-26T10:14:22;24.42;;;16.45;;
61978;SDS011;47938;48.176;16.414;2022-10-26T10:16:58;26.20;;;17.45;;
61978;SDS011;47938;48.176;16.414;2022-10-26T10:21:57;26.15;;;16.38;;
61978;SDS011;47938;48.176;16.414;2022-10-26T10:24:33;26.17;;;16.60;;
61978;SDS011;47938;48.176;16.414;2022-10-26T10:29:39;24.02;;;16.00;;
61978;SDS011;47938;48.176;16.414;2022-10-26T10:32:17;23.08;;;14.88;;
61978;SDS011;47938;48.176;16.414;2022-10-26T10:34:43;24.25;;;15.80;;
61978;SDS011;47938;48.176;16.414;2022-10-26T10:37:50;23.83;;;15.93;;
61978;SDS011;47938;48.176;16.414;2022-10-26T10:40:06;23.65;;;15.88;;
61978;SDS011;47938;48.176;16.414;2022-10-26T10:42:39;21.40;;;16.23;;
61978;SDS011;47938;48.176;16.414;2022-10-26T10:45:16;24.55;;;14.27;;
61978;SDS011;47938;48.176;16.414;2022-10-26T10:50:36;21.42;;;15.40;;
61978;SDS011;47938;48.176;16.414;2022-10-26T10:53:19;23.88;;;14.88;;
61978;SDS011;47938;48.176;16.414;2022-10-26T10:55:50;23.63;;;16.20;;
61978;SDS011;47938;48.176;16.414;2022-10-26T10:58:26;22.48;;;15.95;;
61978;SDS011;47938;48.176;16.414;2022-10-26T11:01:01;23.13;;;14.63;;
61978;SDS011;47938;48.176;16.414;2022-10-26T11:09:03;20.98;;;15.02;;
61978;SDS011;47938;48.176;16.414;2022-10-26T11:14:15;23.42;;;16.30;;
61978;SDS011;47938;48.176;16.414;2022-10-26T11:16:49;23.25;;;16.70;;
61978;SDS011;47938;48.176;16.414;2022-10-26T11:22:13;25.50;;;17.55;;
61978;SDS011;47938;48.176;16.414;2022-10-26T11:27:17;28.55;;;18.27;;
61978;SDS011;47938;48.176;16.414;2022-10-26T11:32:37;29.48;;;19.92;;
61978;SDS011;47938;48.176;16.414;2022-10-26T11:43:40;26.48;;;18.48;;
61978;SDS011;47938;48.176;16.414;2022-10-26T11:51:47;26.65;;;20.10;;
61978;SDS011;47938;48.176;16.414;2022-10-26T11:54:30;28.15;;;20.08;;
61978;SDS011;47938;48.176;16.414;2022-10-26T11:57:00;30.25;;;19.48;;
61978;SDS011;47938;48.176;16.414;2022-10-26T11:59:29;30.75;;;19.90;;
61978;SDS011;47938;48.176;16.414;2022-10-26T12:02:31;33.80;;;21.60;;
61978;SDS011;47938;48.176;16.414;2022-10-26T12:04:53;31.63;;;21.77;;
61978;SDS011;47938;48.176;16.414;2022-10-26T12:07:34;36.60;;;22.73;;
61978;SDS011;47938;48.176;16.414;2022-10-26T12:10:03;39.90;;;23.08;;
61978;SDS011;47938;48.176;16.414;2022-10-26T12:13:33;36.08;;;24.90;;
61978;SDS011;47938;48.176;16.414;2022-10-26T12:15:44;43.50;;;25.85;;
61978;SDS011;47938;48.176;16.414;2022-10-26T12:18:29;47.65;;;26.75;;
61978;SDS011;47938;48.176;16.414;2022-10-26T12:21:00;42.30;;;27.05;;
61978;SDS011;47938;48.176;16.414;2022-10-26T12:23:26;43.72;;;26.73;;
61978;SDS011;47938;48.176;16.414;2022-10-26T12:28:47;48.20;;;27.10;;
61978;SDS011;47938;48.176;16.414;2022-10-26T12:34:02;51.67;;;27.30;;
61978;SDS011;47938;48.176;16.414;2022-10-26T12:39:28;53.97;;;28.23;;
61978;SDS011;47938;48.176;16.414;2022-10-26T12:45:00;44.38;;;25.88;;
61978;SDS011;47938;48.176;16.414;2022-10-26T13:09:20;44.33;;;25.55;;
61978;SDS011;47938;48.176;16.414;2022-10-26T13:11:52;45.88;;;25.55;;
61978;SDS011;47938;48.176;16.414;2022-10-26T13:14:31;46.28;;;26.25;;
61978;SDS011;47938;48.176;16.414;2022-10-26T13:16:59;47.58;;;25.75;;
61978;SDS011;47938;48.176;16.414;2022-10-26T13:22:02;48.50;;;26.27;;
61978;SDS011;47938;48.176;16.414;2022-10-26T13:24:29;48.75;;;26.75;;
61978;SDS011;47938;48.176;16.414;2022-10-26T13:29:31;42.83;;;25.27;;
61978;SDS011;47938;48.176;16.414;2022-10-26T13:32:17;42.30;;;24.67;;
61978;SDS011;47938;48.176;16.414;2022-10-26T13:34:43;43.28;;;24.98;;
61978;SDS011;47938;48.176;16.414;2022-10-26T13:37:18;49.83;;;25.52;;
61978;SDS011;47938;48.176;16.414;2022-10-26T13:39:48;42.22;;;24.30;;
61978;SDS011;47938;48.176;16.414;2022-10-26T13:42:17;45.08;;;25.48;;
61978;SDS011;47938;48.176;16.414;2022-10-26T13:44:55;42.00;;;23.02;;
61978;SDS011;47938;48.176;16.414;2022-10-26T13:47:48;45.25;;;25.08;;
61978;SDS011;47938;48.176;16.414;2022-10-26T13:50:30;43.20;;;24.70;;
61978;SDS011;47938;48.176;16.414;2022-10-26T13:53:06;42.65;;;24.63;;
61978;SDS011;47938;48.176;16.414;2022-10-26T13:55:53;49.22;;;26.05;;
61978;SDS011;47938;48.176;16.414;2022-10-26T13:59:01;43.92;;;24.60;;
61978;SDS011;47938;48.176;16.414;2022-10-26T14:01:27;42.67;;;23.48;;
61978;SDS011;47938;48.176;16.414;2022-10-26T14:03:53;44.85;;;24.52;;
61978;SDS011;47938;48.176;16.414;2022-10-26T14:06:23;44.15;;;24.85;;
61978;SDS011;47938;48.176;16.414;2022-10-26T14:09:02;42.30;;;24.55;;
61978;SDS011;47938;48.176;16.414;2022-10-26T14:13:58;43.08;;;24.52;;
61978;SDS011;47938;48.176;16.414;2022-10-26T14:16:26;48.65;;;26.02;;
61978;SDS011;47938;48.176;16.414;2022-10-26T14:18:53;46.70;;;26.05;;
61978;SDS011;47938;48.176;16.414;2022-10-26T14:21:20;44.15;;;24.90;;
61978;SDS011;47938;48.176;16.414;2022-10-26T14:23:51;52.25;;;27.20;;
61978;SDS011;47938;48.176;16.414;2022-10-26T14:26:28;46.20;;;26.48;;
61978;SDS011;47938;48.176;16.414;2022-10-26T14:29:02;45.38;;;26.50;;
61978;SDS011;47938;48.176;16.414;2022-10-26T14:31:28;47.40;;;25.85;;
61978;SDS011;47938;48.176;16.414;2022-10-26T14:33:56;53.05;;;27.40;;
61978;SDS011;47938;48.176;16.414;2022-10-26T14:36:33;50.20;;;27.17;;
61978;SDS011;47938;48.176;16.414;2022-10-26T14:39:06;48.63;;;27.05;;
61978;SDS011;47938;48.176;16.414;2022-10-26T14:41:40;45.13;;;27.65;;
61978;SDS011;47938;48.176;16.414;2022-10-26T14:44:12;55.10;;;29.67;;
61978;SDS011;47938;48.176;16.414;2022-10-26T14:46:42;52.80;;;28.17;;
61978;SDS011;47938;48.176;16.414;2022-10-26T14:49:13;56.30;;;30.10;;
61978;SDS011;47938;48.176;16.414;2022-10-26T14:51:43;52.55;;;29.88;;
61978;SDS011;47938;48.176;16.414;2022-10-26T14:54:19;54.40;;;29.27;;
61978;SDS011;47938;48.176;16.414;2022-10-26T14:56:46;53.70;;;28.92;;
61978;SDS011;47938;48.176;16.414;2022-10-26T14:59:23;49.75;;;30.42;;
61978;SDS011;47938;48.176;16.414;2022-10-26T15:04:41;53.90;;;30.08;;
61978;SDS011;47938;48.176;16.414;2022-10-26T15:07:41;54.83;;;28.33;;
61978;SDS011;47938;48.176;16.414;2022-10-26T15:10:36;53.83;;;30.58;;
61978;SDS011;47938;48.176;16.414;2022-10-26T15:13:08;57.58;;;30.65;;
61978;SDS011;47938;48.176;16.414;2022-10-26T15:15:42;55.75;;;31.02;;
61978;SDS011;47938;48.176;16.414;2022-10-26T15:18:19;56.70;;;31.25;;
61978;SDS011;47938;48.176;16.414;2022-10-26T15:20:51;56.08;;;31.50;;
61978;SDS011;47938;48.176;16.414;2022-10-26T15:23:17;56.63;;;30.92;;
61978;SDS011;47938;48.176;16.414;2022-10-26T15:25:49;61.10;;;31.98;;
61978;SDS011;47938;48.176;16.414;2022-10-26T15:28:37;58.83;;;31.52;;
61978;SDS011;47938;48.176;16.414;2022-10-26T15:34:10;54.30;;;30.10;;
61978;SDS011;47938;48.176;16.414;2022-10-26T15:36:28;57.25;;;31.02;;
61978;SDS011;47938;48.176;16.414;2022-10-26T15:38:57;58.60;;;30.48;;
61978;SDS011;47938;48.176;16.414;2022-10-26T15:41:34;53.88;;;30.90;;
61978;SDS011;47938;48.176;16.414;2022-10-26T15:44:03;55.30;;;30.77;;
61978;SDS011;47938;48.176;16.414;2022-10-26T15:46:34;59.53;;;31.52;;
61978;SDS011;47938;48.176;16.414;2022-10-26T15:49:04;60.17;;;30.73;;
61978;SDS011;47938;48.176;16.414;2022-10-26T15:51:31;53.40;;;31.07;;
61978;SDS011;47938;48.176;16.414;2022-10-26T15:53:58;54.65;;;31.88;;
61978;SDS011;47938;48.176;16.414;2022-10-26T15:56:25;54.80;;;30.52;;
61978;SDS011;47938;48.176;16.414;2022-10-26T15:58:52;51.55;;;30.35;;
61978;SDS011;47938;48.176;16.414;2022-10-26T16:01:19;50.22;;;29.35;;
61978;SDS011;47938;48.176;16.414;2022-10-26T16:03:47;52.35;;;29.77;;
61978;SDS011;47938;48.176;16.414;2022-10-26T16:06:16;51.67;;;29.38;;
61978;SDS011;47938;48.176;16.414;2022-10-26T16:09:03;47.55;;;29.20;;
61978;SDS011;47938;48.176;16.414;2022-10-26T16:11:30;51.90;;;28.92;;
61978;SDS011;47938;48.176;16.414;2022-10-26T16:13:56;53.22;;;30.42;;
61978;SDS011;47938;48.176;16.414;2022-10-26T16:16:22;50.08;;;28.48;;
61978;SDS011;47938;48.176;16.414;2022-10-26T16:18:51;45.85;;;29.60;;
61978;SDS011;47938;48.176;16.414;2022-10-26T16:21:18;49.58;;;29.98;;
61978;SDS011;47938;48.176;16.414;2022-10-26T16:23:45;49.28;;;30.23;;
61978;SDS011;47938;48.176;16.414;2022-10-26T16:26:13;44.92;;;28.70;;
61978;SDS011;47938;48.176;16.414;2022-10-26T16:28:39;51.38;;;30.67;;
61978;SDS011;47938;48.176;16.414;2022-10-26T16:31:05;43.38;;;29.88;;
61978;SDS011;47938;48.176;16.414;2022-10-26T16:33:37;48.30;;;32.08;;
61978;SDS011;47938;48.176;16.414;2022-10-26T16:36:03;51.47;;;31.85;;
61978;SDS011;47938;48.176;16.414;2022-10-26T16:38:31;48.63;;;30.13;;
61978;SDS011;47938;48.176;16.414;2022-10-26T16:41:04;48.30;;;30.30;;
61978;SDS011;47938;48.176;16.414;2022-10-26T16:43:40;46.83;;;28.90;;
61978;SDS011;47938;48.176;16.414;2022-10-26T16:46:07;48.25;;;30.15;;
61978;SDS011;47938;48.176;16.414;2022-10-26T16:48:35;49.67;;;30.58;;
61978;SDS011;47938;48.176;16.414;2022-10-26T16:51:11;49.42;;;30.45;;
61978;SDS011;47938;48.176;16.414;2022-10-26T16:53:39;41.17;;;28.60;;
61978;SDS011;47938;48.176;16.414;2022-10-26T16:56:09;41.85;;;29.45;;
61978;SDS011;47938;48.176;16.414;2022-10-26T16:58:36;46.65;;;29.65;;
61978;SDS011;47938;48.176;16.414;2022-10-26T17:01:03;44.63;;;29.10;;
61978;SDS011;47938;48.176;16.414;2022-10-26T17:03:29;41.60;;;29.23;;
61978;SDS011;47938;48.176;16.414;2022-10-26T17:05:56;41.42;;;29.58;;
61978;SDS011;47938;48.176;16.414;2022-10-26T17:08:23;41.13;;;28.30;;